createdAt,value
2022-10-18T00:00:13.477Z,5
2022-10-18T00:10:22.120Z,5
2022-10-18T00:20:28.266Z,4
2022-10-18T00:30:32.511Z,6
2022-10-18T00:40:39.697Z,7
2022-10-18T00:50:46.072Z,8
2022-10-18T01:00:51.697Z,6
2022-10-18T01:10:57.787Z,6
2022-10-18T01:21:04.938Z,6
2022-10-18T01:31:09.895Z,5
2022-10-18T01:41:15.723Z,4
2022-10-18T01:51:20.435Z,6
2022-10-18T02:01:24.712Z,4
2022-10-18T02:11:32.842Z,5
2022-10-18T02:21:37.967Z,5
2022-10-18T02:31:41.266Z,7
2022-10-18T02:41:48.333Z,4
2022-10-18T02:51:53.715Z,8
2022-10-18T03:02:00.398Z,5
2022-10-18T03:12:06.687Z,6
2022-10-18T03:22:11.866Z,5
2022-10-18T03:32:16.204Z,6
2022-10-18T03:42:22.277Z,5
2022-10-18T03:52:29.072Z,4
2022-10-18T04:02:35.089Z,6
2022-10-18T04:12:40.535Z,6
2022-10-18T04:22:47.993Z,6
2022-10-18T04:32:53.813Z,5
2022-10-18T04:42:59.433Z,6
2022-10-18T04:53:06.003Z,5
2022-10-18T05:03:14.361Z,5
2022-10-18T05:13:20.573Z,6
2022-10-18T05:23:24.639Z,7
2022-10-18T05:33:30.260Z,7
2022-10-18T05:43:36.762Z,8
2022-10-18T05:54:14.050Z,6
2022-10-18T06:04:07.116Z,8
2022-10-18T06:14:15.510Z,6
2022-10-18T06:24:18.486Z,6
2022-10-18T06:34:24.765Z,5
2022-10-18T06:44:31.020Z,5
2022-10-18T06:55:00.387Z,7
2022-10-18T07:04:54.021Z,6
2022-10-18T07:15:10.713Z,8
2022-10-18T07:25:06.833Z,5
2022-10-18T07:45:17.943Z,5
2022-10-18T07:55:23.918Z,8
2022-10-18T08:05:30.219Z,7
2022-10-18T08:15:36.515Z,6
2022-10-18T08:25:44.061Z,6
2022-10-18T08:35:51.921Z,5
2022-10-18T08:46:24.835Z,8
2022-10-18T08:56:19.550Z,10
2022-10-18T09:06:25.357Z,7
2022-10-18T09:16:28.603Z,7
2022-10-18T09:26:35.550Z,8
2022-10-18T09:36:41.155Z,12
2022-10-18T09:46:45.432Z,15
2022-10-18T09:56:51.956Z,14
2022-10-18T10:06:57.619Z,18
2022-10-18T10:17:03.501Z,12
2022-10-18T10:57:27.106Z,7
2022-10-18T11:07:32.863Z,6
2022-10-18T11:17:44.243Z,7
2022-10-18T11:27:46.120Z,6
2022-10-18T11:38:22.566Z,6
2022-10-18T11:48:17.238Z,6
2022-10-18T11:58:22.926Z,6
2022-10-18T12:08:27.914Z,5
2022-10-18T12:18:44.234Z,5
2022-10-18T12:28:49.975Z,8
2022-10-18T12:38:54.988Z,7
2022-10-18T12:49:02.290Z,9
2022-10-18T12:59:06.669Z,6
2022-10-18T13:09:12.415Z,8
2022-10-18T13:19:18.234Z,7
2022-10-18T13:29:26.280Z,8
2022-10-18T13:39:31.060Z,9
2022-10-18T13:49:36.912Z,7
2022-10-18T14:00:00.443Z,7
2022-10-18T14:10:44.097Z,6
2022-10-18T14:21:16.048Z,7
2022-10-18T14:51:27.521Z,5
2022-10-18T15:01:35.649Z,7
2022-10-18T15:11:36.988Z,11
2022-10-18T15:21:41.775Z,7
2022-10-18T15:31:48.258Z,8
2022-10-18T15:41:56.533Z,6
2022-10-18T15:52:01.644Z,7
2022-10-18T16:02:08.486Z,10
2022-10-18T16:12:12.372Z,10
2022-10-18T16:22:18.003Z,8
2022-10-18T16:32:23.148Z,11
2022-10-18T16:42:29.355Z,8
2022-10-18T16:52:36.711Z,8
2022-10-18T17:02:44.156Z,7
2022-10-18T17:12:49.771Z,7
2022-10-18T17:22:55.912Z,8
2022-10-18T17:33:02.936Z,9
2022-10-18T17:43:07.729Z,13
2022-10-18T17:53:13.865Z,13
2022-10-18T18:03:23.333Z,16
2022-10-18T18:13:24.150Z,11
2022-10-18T18:23:30.751Z,10
2022-10-18T18:33:36.522Z,9
2022-10-18T18:44:05.146Z,8
2022-10-18T18:54:04.400Z,8
2022-10-18T19:04:04.538Z,11
2022-10-18T19:14:09.764Z,16
2022-10-18T19:24:15.668Z,11
2022-10-18T19:34:42.230Z,14
2022-10-18T19:44:35.191Z,9
2022-10-18T19:54:40.392Z,12
2022-10-18T20:04:45.553Z,10
2022-10-18T20:14:50.847Z,12
2022-10-18T20:24:57.432Z,11
2022-10-18T20:35:02.963Z,12
2022-10-18T20:45:07.475Z,12
2022-10-18T20:55:12.093Z,12
2022-10-18T21:05:23.748Z,10
2022-10-18T21:15:24.459Z,12
2022-10-18T21:25:31.397Z,13
2022-10-18T21:35:38.968Z,13
2022-10-18T21:45:43.460Z,14
2022-10-18T21:55:48.629Z,12
2022-10-18T22:05:58.349Z,13
2022-10-18T22:16:01.510Z,11
2022-10-18T22:26:06.849Z,16
2022-10-18T22:36:13.154Z,15
2022-10-18T22:46:17.497Z,12
2022-10-18T22:56:23.283Z,12
2022-10-18T23:06:28.866Z,11
2022-10-18T23:16:40.360Z,13
2022-10-18T23:26:41.025Z,11
2022-10-18T23:36:45.574Z,8
2022-10-18T23:46:49.850Z,11
2022-10-18T23:56:56.030Z,8
